Hlavní strana
METAR-TAF:

METAR-TAF

Letiště :

Vadsø, Norsko

zeměpisná šířka: 70-04N, zeměpisná délka: 029-51E, výška: 3 m

Aktuální stav počasí

Zpráva byla vytvořena před 30 minutami, v 11:50 UTC
Severní vítr 5 kt
Teplota -6°C
Vlhkost vzduchu 68%
Tlak 1008 hPa
Viditelnost 10 km a více
Žádná oblačnost pod 1500 m, nevyskytují se cumulonimby.

METAR: ENVD 071150Z 35005KT CAVOK M06/M11 Q1008

Čas: 13:20 (12:20 UTC)

Předpověď počasí

Zpráva byla vytvořena před 25 hodinami a 20 minutami, v 11:00 UTC
Předpověď platná od 06 v 12 UTC do 06 v 15 UTC
Východní vítr 8 kt
Viditelnost 10 km a více
Oblačno až skoro zataženo ve výšce 2000 ft
Pravděpodobnost 40%
od 06 v 12 UTC do 06 v 15 UTC
Viditelnost: 2500 m
ve výšce 800 ft
slabé sněžení

TAF: ENVD 061100Z 0612/0615 09008KT 9999 BKN020 PROB40 0612/0615 2500 -SN VV008

Stav a předpovědi počasí z více než 4 000 letišť (zprávy METAR a TAF).

Červené a žluté tečky na mapě představují dostupné meteorologické stanice.

Když kurzor umístíte na tečku, zobrazí se název stanice.

Pak kliknutím zobrazíte stav a předpověď počasí.

Chcete-li změnit mapu, kliknutím na zelené tlačítko se znaménkem +mapu přiblížíte, kliknutím na zelené tlačítko se znaménkem – mapu oddálíte a kliknutím na zelené šipky přejdete na sousední mapy.


METAR-TAF: